sensor_id;sensor_type;location;lat;lon;timestamp;P1;durP1;ratioP1;P2;durP2;ratioP2
16965;SDS011;8599;47.852;12.070;2023-02-13T00:00:00;23.93;;;14.87;;
16965;SDS011;8599;47.852;12.070;2023-02-13T00:02:29;25.17;;;14.73;;
16965;SDS011;8599;47.852;12.070;2023-02-13T00:04:55;36.57;;;15.83;;
16965;SDS011;8599;47.852;12.070;2023-02-13T00:07:22;25.80;;;14.50;;
16965;SDS011;8599;47.852;12.070;2023-02-13T00:09:49;21.20;;;14.03;;
16965;SDS011;8599;47.852;12.070;2023-02-13T00:12:16;23.40;;;14.37;;
16965;SDS011;8599;47.852;12.070;2023-02-13T00:14:43;20.87;;;13.37;;
16965;SDS011;8599;47.852;12.070;2023-02-13T00:17:09;29.50;;;14.17;;
16965;SDS011;8599;47.852;12.070;2023-02-13T00:19:37;27.93;;;13.57;;
16965;SDS011;8599;47.852;12.070;2023-02-13T00:22:04;24.23;;;13.67;;
16965;SDS011;8599;47.852;12.070;2023-02-13T00:24:31;21.93;;;13.57;;
16965;SDS011;8599;47.852;12.070;2023-02-13T00:26:58;30.93;;;13.97;;
16965;SDS011;8599;47.852;12.070;2023-02-13T00:29:25;20.07;;;13.07;;
16965;SDS011;8599;47.852;12.070;2023-02-13T00:31:52;24.47;;;12.57;;
16965;SDS011;8599;47.852;12.070;2023-02-13T00:34:19;18.27;;;12.40;;
16965;SDS011;8599;47.852;12.070;2023-02-13T00:36:47;24.10;;;13.70;;
16965;SDS011;8599;47.852;12.070;2023-02-13T00:39:14;18.77;;;12.93;;
16965;SDS011;8599;47.852;12.070;2023-02-13T00:41:40;20.53;;;12.17;;
16965;SDS011;8599;47.852;12.070;2023-02-13T00:44:07;23.73;;;11.97;;
16965;SDS011;8599;47.852;12.070;2023-02-13T00:46:34;21.07;;;12.33;;
16965;SDS011;8599;47.852;12.070;2023-02-13T00:49:02;22.33;;;12.17;;
16965;SDS011;8599;47.852;12.070;2023-02-13T00:51:29;24.60;;;13.20;;
16965;SDS011;8599;47.852;12.070;2023-02-13T00:53:57;18.57;;;12.60;;
16965;SDS011;8599;47.852;12.070;2023-02-13T00:56:25;17.07;;;11.33;;
16965;SDS011;8599;47.852;12.070;2023-02-13T00:58:52;22.17;;;13.17;;
16965;SDS011;8599;47.852;12.070;2023-02-13T01:01:18;23.57;;;12.63;;
16965;SDS011;8599;47.852;12.070;2023-02-13T01:03:45;21.83;;;12.50;;
16965;SDS011;8599;47.852;12.070;2023-02-13T01:06:12;18.23;;;12.23;;
16965;SDS011;8599;47.852;12.070;2023-02-13T01:08:39;22.13;;;14.57;;
16965;SDS011;8599;47.852;12.070;2023-02-13T01:11:07;28.27;;;13.60;;
16965;SDS011;8599;47.852;12.070;2023-02-13T01:13:34;20.57;;;12.67;;
16965;SDS011;8599;47.852;12.070;2023-02-13T01:16:01;21.60;;;12.13;;
16965;SDS011;8599;47.852;12.070;2023-02-13T01:18:28;16.67;;;12.10;;
16965;SDS011;8599;47.852;12.070;2023-02-13T01:20:56;23.93;;;12.70;;
16965;SDS011;8599;47.852;12.070;2023-02-13T01:23:33;16.87;;;11.50;;
16965;SDS011;8599;47.852;12.070;2023-02-13T01:26:02;16.43;;;11.43;;
16965;SDS011;8599;47.852;12.070;2023-02-13T01:28:31;18.37;;;10.73;;
16965;SDS011;8599;47.852;12.070;2023-02-13T01:30:58;27.60;;;11.60;;
16965;SDS011;8599;47.852;12.070;2023-02-13T01:33:25;18.03;;;12.43;;
16965;SDS011;8599;47.852;12.070;2023-02-13T01:35:53;17.57;;;11.83;;
16965;SDS011;8599;47.852;12.070;2023-02-13T01:38:20;14.37;;;10.50;;
16965;SDS011;8599;47.852;12.070;2023-02-13T01:40:47;26.50;;;11.93;;
16965;SDS011;8599;47.852;12.070;2023-02-13T01:43:16;17.87;;;11.30;;
16965;SDS011;8599;47.852;12.070;2023-02-13T01:45:45;15.63;;;10.53;;
16965;SDS011;8599;47.852;12.070;2023-02-13T01:48:17;26.07;;;12.37;;
16965;SDS011;8599;47.852;12.070;2023-02-13T01:50:47;16.63;;;11.33;;
16965;SDS011;8599;47.852;12.070;2023-02-13T01:53:17;17.33;;;11.67;;
16965;SDS011;8599;47.852;12.070;2023-02-13T01:55:49;16.73;;;11.10;;
16965;SDS011;8599;47.852;12.070;2023-02-13T01:58:20;20.73;;;10.73;;
16965;SDS011;8599;47.852;12.070;2023-02-13T02:00:51;20.90;;;11.90;;
16965;SDS011;8599;47.852;12.070;2023-02-13T02:03:20;15.07;;;10.97;;
16965;SDS011;8599;47.852;12.070;2023-02-13T02:05:50;21.43;;;11.00;;
16965;SDS011;8599;47.852;12.070;2023-02-13T02:08:19;17.13;;;11.70;;
16965;SDS011;8599;47.852;12.070;2023-02-13T02:10:46;15.97;;;11.37;;
16965;SDS011;8599;47.852;12.070;2023-02-13T02:13:14;16.90;;;11.10;;
16965;SDS011;8599;47.852;12.070;2023-02-13T02:15:43;16.20;;;10.80;;
16965;SDS011;8599;47.852;12.070;2023-02-13T02:18:13;16.47;;;10.63;;
16965;SDS011;8599;47.852;12.070;2023-02-13T02:20:54;16.43;;;11.70;;
16965;SDS011;8599;47.852;12.070;2023-02-13T02:32:51;19.37;;;9.60;;
16965;SDS011;8599;47.852;12.070;2023-02-13T02:35:26;14.97;;;10.40;;
16965;SDS011;8599;47.852;12.070;2023-02-13T02:38:03;19.57;;;11.67;;
16965;SDS011;8599;47.852;12.070;2023-02-13T02:40:50;19.60;;;10.97;;
16965;SDS011;8599;47.852;12.070;2023-02-13T02:43:27;22.23;;;9.87;;
16965;SDS011;8599;47.852;12.070;2023-02-13T02:46:04;19.30;;;10.53;;
16965;SDS011;8599;47.852;12.070;2023-02-13T02:48:40;16.03;;;10.80;;
16965;SDS011;8599;47.852;12.070;2023-02-13T02:51:45;17.73;;;11.57;;
16965;SDS011;8599;47.852;12.070;2023-02-13T02:54:19;16.83;;;10.70;;
16965;SDS011;8599;47.852;12.070;2023-02-13T02:57:09;15.87;;;10.30;;
16965;SDS011;8599;47.852;12.070;2023-02-13T02:59:39;18.13;;;11.43;;
16965;SDS011;8599;47.852;12.070;2023-02-13T03:02:26;22.80;;;11.90;;
16965;SDS011;8599;47.852;12.070;2023-02-13T03:05:14;25.67;;;11.63;;
16965;SDS011;8599;47.852;12.070;2023-02-13T03:08:03;15.93;;;10.30;;
16965;SDS011;8599;47.852;12.070;2023-02-13T03:10:31;15.07;;;10.73;;
16965;SDS011;8599;47.852;12.070;2023-02-13T03:13:27;16.77;;;11.00;;
16965;SDS011;8599;47.852;12.070;2023-02-13T03:15:59;16.40;;;11.13;;
16965;SDS011;8599;47.852;12.070;2023-02-13T03:18:44;15.90;;;11.23;;
16965;SDS011;8599;47.852;12.070;2023-02-13T03:21:36;21.67;;;10.87;;
16965;SDS011;8599;47.852;12.070;2023-02-13T03:24:37;14.77;;;10.50;;
16965;SDS011;8599;47.852;12.070;2023-02-13T03:27:14;19.10;;;11.10;;
16965;SDS011;8599;47.852;12.070;2023-02-13T03:30:10;16.93;;;10.83;;
16965;SDS011;8599;47.852;12.070;2023-02-13T03:32:44;15.87;;;11.50;;
16965;SDS011;8599;47.852;12.070;2023-02-13T03:35:24;16.10;;;11.03;;
16965;SDS011;8599;47.852;12.070;2023-02-13T03:38:19;16.77;;;11.63;;
16965;SDS011;8599;47.852;12.070;2023-02-13T03:40:51;14.87;;;10.70;;
16965;SDS011;8599;47.852;12.070;2023-02-13T03:43:38;16.87;;;11.33;;
16965;SDS011;8599;47.852;12.070;2023-02-13T03:46:10;16.23;;;10.77;;
16965;SDS011;8599;47.852;12.070;2023-02-13T03:48:39;20.47;;;12.47;;
16965;SDS011;8599;47.852;12.070;2023-02-13T03:51:26;21.53;;;12.70;;
16965;SDS011;8599;47.852;12.070;2023-02-13T03:53:59;18.47;;;11.67;;
16965;SDS011;8599;47.852;12.070;2023-02-13T03:56:29;17.13;;;12.23;;
16965;SDS011;8599;47.852;12.070;2023-02-13T03:59:18;17.70;;;11.43;;
16965;SDS011;8599;47.852;12.070;2023-02-13T04:01:50;18.83;;;12.00;;
16965;SDS011;8599;47.852;12.070;2023-02-13T04:04:24;16.10;;;11.13;;
16965;SDS011;8599;47.852;12.070;2023-02-13T04:06:56;17.23;;;11.77;;
16965;SDS011;8599;47.852;12.070;2023-02-13T04:09:28;17.87;;;11.37;;
16965;SDS011;8599;47.852;12.070;2023-02-13T04:11:57;17.33;;;11.70;;
16965;SDS011;8599;47.852;12.070;2023-02-13T04:14:32;18.03;;;11.23;;
16965;SDS011;8599;47.852;12.070;2023-02-13T04:17:04;24.90;;;12.67;;
16965;SDS011;8599;47.852;12.070;2023-02-13T04:19:33;23.27;;;12.43;;
16965;SDS011;8599;47.852;12.070;2023-02-13T04:22:01;19.67;;;12.13;;
16965;SDS011;8599;47.852;12.070;2023-02-13T04:24:29;20.63;;;11.40;;
16965;SDS011;8599;47.852;12.070;2023-02-13T04:26:56;20.83;;;11.93;;
16965;SDS011;8599;47.852;12.070;2023-02-13T04:29:23;16.97;;;11.83;;
16965;SDS011;8599;47.852;12.070;2023-02-13T04:31:51;17.73;;;11.77;;
16965;SDS011;8599;47.852;12.070;2023-02-13T04:34:18;15.33;;;11.10;;
16965;SDS011;8599;47.852;12.070;2023-02-13T04:36:45;17.40;;;11.73;;
16965;SDS011;8599;47.852;12.070;2023-02-13T04:39:12;30.93;;;12.67;;
16965;SDS011;8599;47.852;12.070;2023-02-13T04:41:40;20.67;;;11.90;;
16965;SDS011;8599;47.852;12.070;2023-02-13T04:44:07;13.70;;;10.47;;
16965;SDS011;8599;47.852;12.070;2023-02-13T04:46:34;15.47;;;10.93;;
16965;SDS011;8599;47.852;12.070;2023-02-13T04:49:01;25.47;;;12.00;;
16965;SDS011;8599;47.852;12.070;2023-02-13T04:51:28;22.13;;;12.40;;
16965;SDS011;8599;47.852;12.070;2023-02-13T04:53:55;17.80;;;12.40;;
16965;SDS011;8599;47.852;12.070;2023-02-13T04:56:21;18.77;;;11.77;;
16965;SDS011;8599;47.852;12.070;2023-02-13T04:58:49;19.10;;;12.33;;
16965;SDS011;8599;47.852;12.070;2023-02-13T05:01:16;19.90;;;12.90;;
16965;SDS011;8599;47.852;12.070;2023-02-13T05:03:43;20.83;;;12.20;;
16965;SDS011;8599;47.852;12.070;2023-02-13T05:06:10;22.27;;;12.50;;
16965;SDS011;8599;47.852;12.070;2023-02-13T05:08:37;28.53;;;18.00;;
16965;SDS011;8599;47.852;12.070;2023-02-13T05:11:04;22.40;;;14.80;;
16965;SDS011;8599;47.852;12.070;2023-02-13T05:13:31;19.00;;;13.63;;
16965;SDS011;8599;47.852;12.070;2023-02-13T05:15:59;22.47;;;12.77;;
16965;SDS011;8599;47.852;12.070;2023-02-13T05:18:26;23.23;;;13.10;;
16965;SDS011;8599;47.852;12.070;2023-02-13T05:20:53;23.07;;;13.00;;
16965;SDS011;8599;47.852;12.070;2023-02-13T05:23:38;21.60;;;12.30;;
16965;SDS011;8599;47.852;12.070;2023-02-13T05:26:04;19.23;;;12.73;;
16965;SDS011;8599;47.852;12.070;2023-02-13T05:28:31;23.00;;;12.67;;
16965;SDS011;8599;47.852;12.070;2023-02-13T05:31:25;21.90;;;12.30;;
16965;SDS011;8599;47.852;12.070;2023-02-13T05:33:52;24.47;;;13.20;;
16965;SDS011;8599;47.852;12.070;2023-02-13T05:36:19;16.30;;;11.47;;
16965;SDS011;8599;47.852;12.070;2023-02-13T05:38:46;27.47;;;13.47;;
16965;SDS011;8599;47.852;12.070;2023-02-13T05:41:12;26.07;;;13.40;;
16965;SDS011;8599;47.852;12.070;2023-02-13T05:43:39;19.10;;;12.57;;
16965;SDS011;8599;47.852;12.070;2023-02-13T05:46:07;22.37;;;13.10;;
16965;SDS011;8599;47.852;12.070;2023-02-13T05:48:36;21.13;;;13.63;;
16965;SDS011;8599;47.852;12.070;2023-02-13T05:51:03;27.07;;;13.93;;
16965;SDS011;8599;47.852;12.070;2023-02-13T05:53:30;25.67;;;13.47;;
16965;SDS011;8599;47.852;12.070;2023-02-13T05:55:59;20.13;;;13.17;;
16965;SDS011;8599;47.852;12.070;2023-02-13T05:58:26;20.80;;;12.60;;
16965;SDS011;8599;47.852;12.070;2023-02-13T06:00:54;23.73;;;13.73;;
16965;SDS011;8599;47.852;12.070;2023-02-13T06:03:22;17.83;;;12.50;;
16965;SDS011;8599;47.852;12.070;2023-02-13T06:05:50;19.10;;;12.77;;
16965;SDS011;8599;47.852;12.070;2023-02-13T06:08:17;25.13;;;14.97;;
16965;SDS011;8599;47.852;12.070;2023-02-13T06:10:44;22.37;;;14.93;;
16965;SDS011;8599;47.852;12.070;2023-02-13T06:13:11;18.83;;;13.13;;
16965;SDS011;8599;47.852;12.070;2023-02-13T06:15:38;24.77;;;14.57;;
16965;SDS011;8599;47.852;12.070;2023-02-13T06:18:06;20.73;;;13.97;;
16965;SDS011;8599;47.852;12.070;2023-02-13T06:20:33;20.43;;;13.40;;
16965;SDS011;8599;47.852;12.070;2023-02-13T06:23:01;23.27;;;14.23;;
16965;SDS011;8599;47.852;12.070;2023-02-13T06:25:28;26.30;;;14.93;;
16965;SDS011;8599;47.852;12.070;2023-02-13T06:27:55;32.90;;;20.27;;
16965;SDS011;8599;47.852;12.070;2023-02-13T06:30:22;21.13;;;14.53;;
16965;SDS011;8599;47.852;12.070;2023-02-13T06:32:49;19.47;;;13.47;;
16965;SDS011;8599;47.852;12.070;2023-02-13T06:35:16;20.90;;;12.53;;
16965;SDS011;8599;47.852;12.070;2023-02-13T06:37:43;21.27;;;14.00;;
16965;SDS011;8599;47.852;12.070;2023-02-13T06:40:12;24.77;;;14.67;;
16965;SDS011;8599;47.852;12.070;2023-02-13T06:42:40;21.67;;;14.00;;
16965;SDS011;8599;47.852;12.070;2023-02-13T06:45:08;23.87;;;13.83;;
16965;SDS011;8599;47.852;12.070;2023-02-13T06:47:35;18.57;;;12.23;;
16965;SDS011;8599;47.852;12.070;2023-02-13T06:50:06;20.00;;;12.37;;
16965;SDS011;8599;47.852;12.070;2023-02-13T06:52:34;18.83;;;11.43;;
16965;SDS011;8599;47.852;12.070;2023-02-13T06:55:01;20.13;;;11.27;;
16965;SDS011;8599;47.852;12.070;2023-02-13T06:57:30;18.33;;;10.57;;
16965;SDS011;8599;47.852;12.070;2023-02-13T06:59:58;15.87;;;9.17;;
16965;SDS011;8599;47.852;12.070;2023-02-13T07:02:25;16.63;;;9.33;;
16965;SDS011;8599;47.852;12.070;2023-02-13T07:04:52;19.00;;;9.80;;
16965;SDS011;8599;47.852;12.070;2023-02-13T07:07:18;12.53;;;9.00;;
16965;SDS011;8599;47.852;12.070;2023-02-13T07:09:45;11.97;;;8.90;;
16965;SDS011;8599;47.852;12.070;2023-02-13T07:12:12;19.03;;;10.60;;
16965;SDS011;8599;47.852;12.070;2023-02-13T07:14:40;20.40;;;10.53;;
16965;SDS011;8599;47.852;12.070;2023-02-13T07:17:07;20.37;;;11.50;;
16965;SDS011;8599;47.852;12.070;2023-02-13T07:19:35;20.07;;;11.53;;
16965;SDS011;8599;47.852;12.070;2023-02-13T07:22:01;17.17;;;10.30;;
16965;SDS011;8599;47.852;12.070;2023-02-13T07:24:28;13.87;;;9.73;;
16965;SDS011;8599;47.852;12.070;2023-02-13T07:26:57;14.97;;;10.57;;
16965;SDS011;8599;47.852;12.070;2023-02-13T07:29:24;19.13;;;11.33;;
16965;SDS011;8599;47.852;12.070;2023-02-13T07:31:52;14.37;;;9.33;;
16965;SDS011;8599;47.852;12.070;2023-02-13T07:34:19;16.17;;;10.00;;
16965;SDS011;8599;47.852;12.070;2023-02-13T07:36:46;15.43;;;9.43;;
16965;SDS011;8599;47.852;12.070;2023-02-13T07:39:13;15.13;;;9.67;;
16965;SDS011;8599;47.852;12.070;2023-02-13T07:41:40;14.70;;;9.37;;
16965;SDS011;8599;47.852;12.070;2023-02-13T07:44:06;14.90;;;9.43;;
16965;SDS011;8599;47.852;12.070;2023-02-13T07:46:33;15.17;;;9.07;;
16965;SDS011;8599;47.852;12.070;2023-02-13T07:49:02;12.73;;;9.50;;
16965;SDS011;8599;47.852;12.070;2023-02-13T07:51:29;13.27;;;8.83;;
16965;SDS011;8599;47.852;12.070;2023-02-13T07:53:56;10.70;;;8.27;;
16965;SDS011;8599;47.852;12.070;2023-02-13T07:56:22;13.50;;;9.37;;
16965;SDS011;8599;47.852;12.070;2023-02-13T07:58:49;16.10;;;8.77;;
16965;SDS011;8599;47.852;12.070;2023-02-13T08:01:16;12.13;;;8.57;;
16965;SDS011;8599;47.852;12.070;2023-02-13T08:03:46;14.87;;;10.63;;
16965;SDS011;8599;47.852;12.070;2023-02-13T08:06:17;13.87;;;9.50;;
16965;SDS011;8599;47.852;12.070;2023-02-13T08:08:45;14.27;;;8.80;;
16965;SDS011;8599;47.852;12.070;2023-02-13T08:11:18;11.50;;;9.03;;
16965;SDS011;8599;47.852;12.070;2023-02-13T08:14:06;14.47;;;9.87;;
16965;SDS011;8599;47.852;12.070;2023-02-13T08:16:33;18.97;;;11.30;;
16965;SDS011;8599;47.852;12.070;2023-02-13T08:19:00;16.97;;;10.53;;
16965;SDS011;8599;47.852;12.070;2023-02-13T08:21:28;23.87;;;10.93;;
16965;SDS011;8599;47.852;12.070;2023-02-13T08:23:56;19.97;;;11.20;;
16965;SDS011;8599;47.852;12.070;2023-02-13T08:26:23;18.70;;;12.17;;
16965;SDS011;8599;47.852;12.070;2023-02-13T08:28:49;18.87;;;10.83;;
16965;SDS011;8599;47.852;12.070;2023-02-13T08:31:16;18.57;;;11.53;;
16965;SDS011;8599;47.852;12.070;2023-02-13T08:33:43;16.77;;;11.40;;
16965;SDS011;8599;47.852;12.070;2023-02-13T08:36:10;17.00;;;10.87;;
16965;SDS011;8599;47.852;12.070;2023-02-13T08:38:38;17.77;;;11.70;;
16965;SDS011;8599;47.852;12.070;2023-02-13T08:41:05;24.20;;;11.40;;
16965;SDS011;8599;47.852;12.070;2023-02-13T08:43:32;16.20;;;11.37;;
16965;SDS011;8599;47.852;12.070;2023-02-13T08:45:59;19.17;;;11.80;;
16965;SDS011;8599;47.852;12.070;2023-02-13T08:48:25;22.67;;;11.53;;
16965;SDS011;8599;47.852;12.070;2023-02-13T08:50:52;22.83;;;13.17;;
16965;SDS011;8599;47.852;12.070;2023-02-13T08:53:19;21.90;;;11.67;;
16965;SDS011;8599;47.852;12.070;2023-02-13T08:55:54;21.13;;;11.43;;
16965;SDS011;8599;47.852;12.070;2023-02-13T08:58:21;16.07;;;11.03;;
16965;SDS011;8599;47.852;12.070;2023-02-13T09:00:48;14.37;;;9.60;;
16965;SDS011;8599;47.852;12.070;2023-02-13T09:03:15;16.27;;;10.63;;
16965;SDS011;8599;47.852;12.070;2023-02-13T09:05:43;28.20;;;11.50;;
16965;SDS011;8599;47.852;12.070;2023-02-13T09:08:09;16.93;;;9.77;;
16965;SDS011;8599;47.852;12.070;2023-02-13T09:10:38;15.40;;;10.03;;
16965;SDS011;8599;47.852;12.070;2023-02-13T09:13:06;19.20;;;10.57;;
16965;SDS011;8599;47.852;12.070;2023-02-13T09:15:33;17.13;;;10.33;;
16965;SDS011;8599;47.852;12.070;2023-02-13T09:18:02;15.93;;;10.63;;
16965;SDS011;8599;47.852;12.070;2023-02-13T09:20:29;14.73;;;9.97;;
16965;SDS011;8599;47.852;12.070;2023-02-13T09:22:56;16.27;;;10.30;;
16965;SDS011;8599;47.852;12.070;2023-02-13T09:25:23;28.00;;;10.70;;
16965;SDS011;8599;47.852;12.070;2023-02-13T09:27:50;20.00;;;11.07;;
16965;SDS011;8599;47.852;12.070;2023-02-13T09:30:18;18.80;;;10.90;;
16965;SDS011;8599;47.852;12.070;2023-02-13T09:32:48;23.60;;;11.73;;
16965;SDS011;8599;47.852;12.070;2023-02-13T09:35:15;19.53;;;11.53;;
16965;SDS011;8599;47.852;12.070;2023-02-13T09:37:42;16.67;;;10.50;;
16965;SDS011;8599;47.852;12.070;2023-02-13T09:40:14;21.97;;;11.37;;
16965;SDS011;8599;47.852;12.070;2023-02-13T09:42:46;15.90;;;10.80;;
16965;SDS011;8599;47.852;12.070;2023-02-13T09:45:14;15.53;;;10.67;;
16965;SDS011;8599;47.852;12.070;2023-02-13T09:47:46;17.10;;;10.97;;
16965;SDS011;8599;47.852;12.070;2023-02-13T09:50:15;18.80;;;10.93;;
16965;SDS011;8599;47.852;12.070;2023-02-13T09:52:46;20.37;;;11.27;;
16965;SDS011;8599;47.852;12.070;2023-02-13T09:55:16;15.47;;;11.03;;
16965;SDS011;8599;47.852;12.070;2023-02-13T09:57:46;17.43;;;10.73;;
16965;SDS011;8599;47.852;12.070;2023-02-13T10:00:19;16.40;;;11.90;;
16965;SDS011;8599;47.852;12.070;2023-02-13T10:02:56;24.60;;;11.20;;
16965;SDS011;8599;47.852;12.070;2023-02-13T10:05:45;21.10;;;11.63;;
16965;SDS011;8599;47.852;12.070;2023-02-13T10:08:24;15.60;;;10.67;;
16965;SDS011;8599;47.852;12.070;2023-02-13T10:11:02;17.43;;;11.20;;
16965;SDS011;8599;47.852;12.070;2023-02-13T10:13:40;19.70;;;12.20;;
16965;SDS011;8599;47.852;12.070;2023-02-13T10:16:15;18.03;;;10.77;;
16965;SDS011;8599;47.852;12.070;2023-02-13T10:18:48;17.93;;;11.80;;
16965;SDS011;8599;47.852;12.070;2023-02-13T10:21:19;16.57;;;11.33;;
16965;SDS011;8599;47.852;12.070;2023-02-13T10:23:50;17.97;;;11.17;;
16965;SDS011;8599;47.852;12.070;2023-02-13T10:26:22;17.20;;;10.93;;
16965;SDS011;8599;47.852;12.070;2023-02-13T10:29:07;15.83;;;10.27;;
16965;SDS011;8599;47.852;12.070;2023-02-13T10:31:55;15.00;;;10.60;;
16965;SDS011;8599;47.852;12.070;2023-02-13T10:34:30;15.93;;;11.23;;
16965;SDS011;8599;47.852;12.070;2023-02-13T10:37:00;23.57;;;11.53;;
16965;SDS011;8599;47.852;12.070;2023-02-13T10:39:29;18.80;;;10.63;;
16965;SDS011;8599;47.852;12.070;2023-02-13T10:41:59;23.00;;;11.83;;
16965;SDS011;8599;47.852;12.070;2023-02-13T10:44:40;15.47;;;10.90;;
16965;SDS011;8599;47.852;12.070;2023-02-13T10:47:17;18.40;;;11.70;;
16965;SDS011;8599;47.852;12.070;2023-02-13T10:50:05;15.23;;;10.40;;
16965;SDS011;8599;47.852;12.070;2023-02-13T10:52:47;19.90;;;10.03;;
16965;SDS011;8599;47.852;12.070;2023-02-13T10:55:30;17.57;;;10.90;;
16965;SDS011;8599;47.852;12.070;2023-02-13T10:58:17;14.47;;;9.47;;
16965;SDS011;8599;47.852;12.070;2023-02-13T11:00:46;24.57;;;10.90;;
16965;SDS011;8599;47.852;12.070;2023-02-13T11:03:19;13.67;;;9.33;;
16965;SDS011;8599;47.852;12.070;2023-02-13T11:05:50;15.80;;;10.00;;
16965;SDS011;8599;47.852;12.070;2023-02-13T11:08:20;16.00;;;10.07;;
16965;SDS011;8599;47.852;12.070;2023-02-13T11:10:48;15.77;;;11.00;;
16965;SDS011;8599;47.852;12.070;2023-02-13T11:13:16;15.37;;;10.70;;
16965;SDS011;8599;47.852;12.070;2023-02-13T11:15:55;16.70;;;11.57;;
16965;SDS011;8599;47.852;12.070;2023-02-13T11:18:27;22.13;;;10.90;;
16965;SDS011;8599;47.852;12.070;2023-02-13T11:21:02;19.90;;;10.93;;
16965;SDS011;8599;47.852;12.070;2023-02-13T11:23:34;23.67;;;10.93;;
16965;SDS011;8599;47.852;12.070;2023-02-13T11:26:04;17.90;;;10.43;;
16965;SDS011;8599;47.852;12.070;2023-02-13T11:28:35;19.27;;;11.67;;
16965;SDS011;8599;47.852;12.070;2023-02-13T11:31:08;17.30;;;11.33;;
16965;SDS011;8599;47.852;12.070;2023-02-13T11:33:39;19.33;;;11.67;;
16965;SDS011;8599;47.852;12.070;2023-02-13T11:36:09;15.80;;;10.93;;
16965;SDS011;8599;47.852;12.070;2023-02-13T11:38:39;18.70;;;11.47;;
16965;SDS011;8599;47.852;12.070;2023-02-13T11:41:07;20.33;;;12.50;;
16965;SDS011;8599;47.852;12.070;2023-02-13T11:43:36;18.73;;;11.13;;
16965;SDS011;8599;47.852;12.070;2023-02-13T11:46:11;19.23;;;11.17;;
16965;SDS011;8599;47.852;12.070;2023-02-13T11:48:44;17.50;;;12.10;;
16965;SDS011;8599;47.852;12.070;2023-02-13T11:51:34;16.07;;;10.57;;
16965;SDS011;8599;47.852;12.070;2023-02-13T11:54:11;21.93;;;11.67;;
16965;SDS011;8599;47.852;12.070;2023-02-13T11:56:56;14.20;;;10.27;;
16965;SDS011;8599;47.852;12.070;2023-02-13T11:59:26;15.37;;;11.13;;
16965;SDS011;8599;47.852;12.070;2023-02-13T12:02:00;22.90;;;12.13;;
16965;SDS011;8599;47.852;12.070;2023-02-13T12:04:28;19.93;;;12.10;;
16965;SDS011;8599;47.852;12.070;2023-02-13T12:07:00;22.07;;;11.23;;
16965;SDS011;8599;47.852;12.070;2023-02-13T12:09:29;16.37;;;10.70;;
16965;SDS011;8599;47.852;12.070;2023-02-13T12:11:57;15.03;;;10.17;;
16965;SDS011;8599;47.852;12.070;2023-02-13T12:14:28;17.90;;;11.20;;
16965;SDS011;8599;47.852;12.070;2023-02-13T12:17:02;16.80;;;10.10;;
16965;SDS011;8599;47.852;12.070;2023-02-13T12:19:34;16.87;;;9.77;;
16965;SDS011;8599;47.852;12.070;2023-02-13T12:22:13;16.37;;;11.10;;
16965;SDS011;8599;47.852;12.070;2023-02-13T12:27:46;12.07;;;9.97;;
16965;SDS011;8599;47.852;12.070;2023-02-13T12:33:19;15.10;;;10.20;;
16965;SDS011;8599;47.852;12.070;2023-02-13T12:35:59;16.20;;;10.27;;
16965;SDS011;8599;47.852;12.070;2023-02-13T12:38:37;14.17;;;10.03;;
16965;SDS011;8599;47.852;12.070;2023-02-13T12:41:13;14.27;;;9.67;;
16965;SDS011;8599;47.852;12.070;2023-02-13T12:43:57;16.93;;;10.80;;
16965;SDS011;8599;47.852;12.070;2023-02-13T12:46:43;15.00;;;10.33;;
16965;SDS011;8599;47.852;12.070;2023-02-13T12:49:25;21.17;;;10.70;;
16965;SDS011;8599;47.852;12.070;2023-02-13T12:52:17;17.43;;;10.70;;
16965;SDS011;8599;47.852;12.070;2023-02-13T12:55:01;17.10;;;11.67;;
16965;SDS011;8599;47.852;12.070;2023-02-13T12:57:46;15.67;;;11.47;;
16965;SDS011;8599;47.852;12.070;2023-02-13T13:00:28;12.60;;;9.63;;
16965;SDS011;8599;47.852;12.070;2023-02-13T13:03:20;16.23;;;10.67;;
16965;SDS011;8599;47.852;12.070;2023-02-13T13:06:00;15.33;;;10.53;;
16965;SDS011;8599;47.852;12.070;2023-02-13T13:08:42;18.67;;;12.17;;
16965;SDS011;8599;47.852;12.070;2023-02-13T13:11:28;15.47;;;10.87;;
16965;SDS011;8599;47.852;12.070;2023-02-13T13:14:09;18.10;;;12.93;;
16965;SDS011;8599;47.852;12.070;2023-02-13T13:16:45;16.97;;;10.13;;
16965;SDS011;8599;47.852;12.070;2023-02-13T13:19:21;14.27;;;10.13;;
16965;SDS011;8599;47.852;12.070;2023-02-13T13:21:56;19.07;;;10.63;;
16965;SDS011;8599;47.852;12.070;2023-02-13T13:24:31;15.50;;;10.73;;
16965;SDS011;8599;47.852;12.070;2023-02-13T13:27:12;18.73;;;10.53;;
16965;SDS011;8599;47.852;12.070;2023-02-13T13:29:44;19.87;;;10.60;;
16965;SDS011;8599;47.852;12.070;2023-02-13T13:32:17;14.83;;;11.00;;
16965;SDS011;8599;47.852;12.070;2023-02-13T13:34:46;15.33;;;10.47;;
16965;SDS011;8599;47.852;12.070;2023-02-13T13:37:15;17.77;;;10.80;;
16965;SDS011;8599;47.852;12.070;2023-02-13T13:39:51;19.50;;;10.93;;
16965;SDS011;8599;47.852;12.070;2023-02-13T13:42:26;15.93;;;10.37;;
16965;SDS011;8599;47.852;12.070;2023-02-13T13:45:02;13.07;;;10.07;;
16965;SDS011;8599;47.852;12.070;2023-02-13T13:47:52;14.07;;;9.73;;
16965;SDS011;8599;47.852;12.070;2023-02-13T13:50:43;15.00;;;9.77;;
16965;SDS011;8599;47.852;12.070;2023-02-13T13:53:11;16.10;;;10.17;;
16965;SDS011;8599;47.852;12.070;2023-02-13T13:55:59;18.87;;;9.70;;
16965;SDS011;8599;47.852;12.070;2023-02-13T13:58:35;13.23;;;10.00;;
16965;SDS011;8599;47.852;12.070;2023-02-13T14:01:17;16.23;;;9.77;;
16965;SDS011;8599;47.852;12.070;2023-02-13T14:03:47;16.73;;;9.73;;
16965;SDS011;8599;47.852;12.070;2023-02-13T14:06:16;13.57;;;9.13;;
16965;SDS011;8599;47.852;12.070;2023-02-13T14:11:43;14.37;;;9.80;;
16965;SDS011;8599;47.852;12.070;2023-02-13T14:17:10;16.10;;;9.83;;
16965;SDS011;8599;47.852;12.070;2023-02-13T14:19:49;13.57;;;8.83;;
16965;SDS011;8599;47.852;12.070;2023-02-13T14:22:24;13.00;;;8.90;;
16965;SDS011;8599;47.852;12.070;2023-02-13T14:24:57;13.47;;;8.63;;
16965;SDS011;8599;47.852;12.070;2023-02-13T14:27:26;14.90;;;8.80;;
16965;SDS011;8599;47.852;12.070;2023-02-13T14:29:56;24.03;;;9.83;;
16965;SDS011;8599;47.852;12.070;2023-02-13T14:32:24;19.40;;;9.53;;
16965;SDS011;8599;47.852;12.070;2023-02-13T14:34:57;13.63;;;9.17;;
16965;SDS011;8599;47.852;12.070;2023-02-13T14:37:30;15.30;;;9.20;;
16965;SDS011;8599;47.852;12.070;2023-02-13T14:43:19;11.63;;;9.07;;
16965;SDS011;8599;47.852;12.070;2023-02-13T14:45:54;13.50;;;9.00;;
16965;SDS011;8599;47.852;12.070;2023-02-13T14:48:35;11.63;;;9.13;;
16965;SDS011;8599;47.852;12.070;2023-02-13T14:51:07;16.00;;;9.53;;
16965;SDS011;8599;47.852;12.070;2023-02-13T14:53:47;15.57;;;10.33;;
16965;SDS011;8599;47.852;12.070;2023-02-13T14:56:18;14.10;;;9.40;;
16965;SDS011;8599;47.852;12.070;2023-02-13T14:58:48;11.20;;;8.47;;
16965;SDS011;8599;47.852;12.070;2023-02-13T15:01:22;13.90;;;9.93;;
16965;SDS011;8599;47.852;12.070;2023-02-13T15:03:57;11.30;;;8.77;;
16965;SDS011;8599;47.852;12.070;2023-02-13T15:06:29;13.17;;;9.80;;
16965;SDS011;8599;47.852;12.070;2023-02-13T15:09:01;11.87;;;9.13;;
16965;SDS011;8599;47.852;12.070;2023-02-13T15:11:33;13.77;;;9.10;;
16965;SDS011;8599;47.852;12.070;2023-02-13T15:14:14;11.00;;;8.93;;